createdAt,value
2023-03-22T00:00:13.242Z,5.39
2023-03-22T00:02:14.768Z,5.37
2023-03-22T00:04:16.304Z,5.36
2023-03-22T00:06:18.585Z,5.42
2023-03-22T00:08:20.336Z,5.39
2023-03-22T00:10:21.948Z,5.38
2023-03-22T00:12:23.552Z,5.41
2023-03-22T00:14:25.608Z,5.38
2023-03-22T00:16:27.242Z,5.48
2023-03-22T00:18:29.561Z,5.62
2023-03-22T00:20:31.365Z,5.65
2023-03-22T00:22:33.174Z,5.81
2023-03-22T00:24:34.685Z,5.88
2023-03-22T00:26:36.226Z,5.70
2023-03-22T00:28:38.706Z,5.62
2023-03-22T00:30:40.776Z,5.67
2023-03-22T00:32:42.449Z,5.76
2023-03-22T00:34:44.010Z,5.78
2023-03-22T00:36:45.481Z,5.83
2023-03-22T00:38:47.124Z,5.93
2023-03-22T00:40:48.675Z,6.04
2023-03-22T00:42:51.560Z,6.08
2023-03-22T00:44:53.070Z,6.07
2023-03-22T00:46:54.563Z,5.98
2023-03-22T00:48:56.459Z,6.10
2023-03-22T00:50:58.325Z,6.03
2023-03-22T00:53:00.363Z,6.03
2023-03-22T00:55:02.021Z,6.01
2023-03-22T00:57:03.782Z,6.03
2023-03-22T00:59:05.973Z,5.86
2023-03-22T01:01:07.701Z,5.97
2023-03-22T01:03:09.767Z,6.06
2023-03-22T01:05:15.794Z,6.03
2023-03-22T01:07:18.055Z,6.07
2023-03-22T01:09:23.841Z,6.17
2023-03-22T01:11:26.350Z,6.23
2023-03-22T01:13:28.836Z,6.23
2023-03-22T01:15:30.501Z,6.24
2023-03-22T01:17:32.475Z,6.34
2023-03-22T01:19:36.511Z,6.33
2023-03-22T01:21:38.507Z,6.31
2023-03-22T01:23:40.600Z,6.29
2023-03-22T01:25:43.207Z,6.29
2023-03-22T01:27:44.814Z,6.29
2023-03-22T01:29:46.417Z,6.18
2023-03-22T01:31:47.952Z,6.24
2023-03-22T01:33:49.476Z,6.24
2023-03-22T01:35:51.484Z,6.36
2023-03-22T01:37:53.490Z,6.35
2023-03-22T01:39:55.773Z,6.23
2023-03-22T01:41:57.583Z,6.21
2023-03-22T01:44:29.639Z,6.46
2023-03-22T01:46:32.936Z,6.53
2023-03-22T01:48:41.777Z,6.41
2023-03-22T01:50:49.520Z,6.32
2023-03-22T01:52:52.965Z,6.23
2023-03-22T01:55:06.604Z,6.05
2023-03-22T01:57:22.818Z,6.20
2023-03-22T01:59:25.164Z,6.30
2023-03-22T02:01:39.724Z,6.34
2023-03-22T02:04:07.161Z,6.37
2023-03-22T02:06:08.973Z,6.42
2023-03-22T02:08:10.614Z,6.41
2023-03-22T02:10:28.567Z,6.57
2023-03-22T02:12:51.828Z,6.55
2023-03-22T02:15:28.125Z,6.58
2023-03-22T02:17:42.102Z,6.47
2023-03-22T02:20:10.670Z,6.45
2023-03-22T02:22:49.924Z,6.57
2023-03-22T02:25:28.951Z,6.61
2023-03-22T02:28:09.506Z,6.62
2023-03-22T02:30:32.627Z,6.57
2023-03-22T02:32:52.504Z,6.57
2023-03-22T02:35:18.506Z,6.56
2023-03-22T02:37:22.770Z,6.59
2023-03-22T02:39:43.043Z,6.57
2023-03-22T02:42:12.623Z,6.49
2023-03-22T02:44:30.661Z,6.46
2023-03-22T02:46:45.881Z,6.43
2023-03-22T02:48:53.219Z,6.27
2023-03-22T02:51:00.686Z,6.29
2023-03-22T02:53:14.568Z,6.25
2023-03-22T02:55:26.408Z,6.22
2023-03-22T02:57:47.791Z,6.14
2023-03-22T02:59:51.480Z,5.94
2023-03-22T03:01:57.450Z,5.87
2023-03-22T03:04:04.851Z,5.89
2023-03-22T03:06:18.020Z,5.97
2023-03-22T03:08:20.900Z,6.19
2023-03-22T03:10:23.710Z,6.32
2023-03-22T03:12:27.044Z,6.28
2023-03-22T03:14:32.097Z,6.20
2023-03-22T03:16:35.022Z,6.19
2023-03-22T03:18:40.749Z,6.25
2023-03-22T03:20:46.440Z,6.15
2023-03-22T03:23:08.972Z,6.19
2023-03-22T03:25:27.394Z,6.25
2023-03-22T03:27:38.344Z,6.22
2023-03-22T03:30:00.719Z,6.29
2023-03-22T03:32:41.951Z,6.30
2023-03-22T03:34:52.890Z,6.41
2023-03-22T03:37:02.761Z,6.37
2023-03-22T03:39:09.653Z,6.46
2023-03-22T03:41:17.882Z,6.51
2023-03-22T03:43:20.809Z,6.69
2023-03-22T03:45:23.265Z,6.78
2023-03-22T03:47:28.290Z,6.89
2023-03-22T03:49:30.143Z,6.95
2023-03-22T03:51:33.186Z,7.03
2023-03-22T03:53:34.680Z,7.14
2023-03-22T03:55:37.692Z,7.30
2023-03-22T03:57:39.494Z,7.33
2023-03-22T03:59:41.244Z,7.38
2023-03-22T04:01:52.630Z,7.41
2023-03-22T04:03:59.774Z,7.55
2023-03-22T04:06:09.263Z,7.61
2023-03-22T04:08:13.438Z,7.64
2023-03-22T04:10:15.014Z,7.58
2023-03-22T04:12:16.568Z,7.80
2023-03-22T04:14:27.449Z,7.80
2023-03-22T04:16:31.697Z,7.86
2023-03-22T04:18:33.472Z,7.83
2023-03-22T04:20:41.522Z,7.79
2023-03-22T04:22:44.783Z,7.87
2023-03-22T04:24:50.025Z,7.91
2023-03-22T04:26:53.635Z,7.83
2023-03-22T04:28:59.216Z,7.77
2023-03-22T04:31:03.227Z,7.72
2023-03-22T04:33:26.224Z,7.64
2023-03-22T04:35:46.635Z,7.62
2023-03-22T04:37:48.861Z,7.67
2023-03-22T04:39:54.141Z,7.70
2023-03-22T04:42:19.927Z,7.70
2023-03-22T04:44:23.693Z,7.64
2023-03-22T04:46:26.421Z,7.58
2023-03-22T04:48:38.397Z,7.57
2023-03-22T04:50:41.259Z,7.61
2023-03-22T04:52:43.120Z,7.68
2023-03-22T04:54:44.588Z,7.63
2023-03-22T04:56:47.342Z,7.62
2023-03-22T04:58:50.631Z,7.62
2023-03-22T05:00:53.770Z,7.62
2023-03-22T05:02:57.408Z,7.63
2023-03-22T05:05:18.948Z,7.65
2023-03-22T05:07:22.358Z,7.65
2023-03-22T05:09:28.480Z,7.66
2023-03-22T05:11:30.443Z,7.69
2023-03-22T05:13:54.249Z,7.63
2023-03-22T05:15:56.286Z,7.60
2023-03-22T05:18:04.910Z,7.62
2023-03-22T05:20:09.834Z,7.56
2023-03-22T05:22:13.986Z,7.61
2023-03-22T05:24:20.131Z,7.61
2023-03-22T05:26:26.214Z,7.68
2023-03-22T05:28:28.743Z,7.66
2023-03-22T05:30:54.764Z,7.69
2023-03-22T05:33:05.781Z,7.69
2023-03-22T05:35:13.107Z,7.73
2023-03-22T05:37:21.008Z,7.72
2023-03-22T05:39:26.450Z,7.68
2023-03-22T05:41:28.044Z,7.72
2023-03-22T05:43:29.649Z,7.67
2023-03-22T05:45:32.481Z,7.62
2023-03-22T05:47:44.556Z,7.66
2023-03-22T05:49:48.789Z,7.62
2023-03-22T05:51:50.490Z,7.62
2023-03-22T05:53:53.514Z,7.56
2023-03-22T05:56:02.712Z,7.52
2023-03-22T05:58:08.410Z,7.58
2023-03-22T06:00:16.215Z,7.58
2023-03-22T06:02:38.347Z,7.63
2023-03-22T06:04:41.579Z,7.66
2023-03-22T06:06:46.794Z,7.72
2023-03-22T06:09:16.033Z,7.90
2023-03-22T06:11:19.258Z,8.04
2023-03-22T06:13:21.879Z,8.26
2023-03-22T06:15:23.998Z,8.29
2023-03-22T06:17:38.756Z,8.41
2023-03-22T06:19:43.139Z,8.45
2023-03-22T06:21:46.262Z,8.39
2023-03-22T06:23:49.789Z,8.46
2023-03-22T06:25:51.567Z,8.61
2023-03-22T06:27:53.129Z,8.64
2023-03-22T06:29:55.754Z,8.66
2023-03-22T06:32:00.611Z,8.62
2023-03-22T06:34:02.711Z,8.73
2023-03-22T06:36:10.862Z,8.90
2023-03-22T06:38:25.202Z,8.90
2023-03-22T06:40:27.839Z,8.97
2023-03-22T06:42:30.900Z,9.07
2023-03-22T06:44:45.091Z,9.24
2023-03-22T06:46:58.797Z,9.31
2023-03-22T06:49:12.039Z,9.38
2023-03-22T06:51:13.721Z,9.30
2023-03-22T06:53:15.263Z,9.29
2023-03-22T06:55:18.447Z,9.48
2023-03-22T06:57:20.112Z,9.56
2023-03-22T06:59:21.699Z,9.70
2023-03-22T07:01:24.498Z,9.79
2023-03-22T07:03:26.119Z,9.98
2023-03-22T07:05:39.110Z,9.83
2023-03-22T07:07:40.670Z,9.99
2023-03-22T07:09:42.278Z,10.17
2023-03-22T07:11:43.877Z,10.28
2023-03-22T07:13:45.504Z,10.47
2023-03-22T07:16:02.199Z,10.68
2023-03-22T07:18:10.044Z,10.47
2023-03-22T07:20:11.829Z,10.49
2023-03-22T07:22:13.361Z,10.20
2023-03-22T07:24:15.230Z,10.19
2023-03-22T07:26:17.069Z,10.31
2023-03-22T07:28:22.286Z,10.07
2023-03-22T07:30:23.825Z,10.24
2023-03-22T07:32:26.078Z,10.13
2023-03-22T07:34:37.159Z,10.49
2023-03-22T07:36:42.999Z,10.26
2023-03-22T07:38:46.361Z,10.34
2023-03-22T07:40:54.611Z,10.26
2023-03-22T07:42:59.333Z,10.36
2023-03-22T07:45:20.676Z,10.61
2023-03-22T07:47:42.898Z,10.43
2023-03-22T07:50:08.084Z,10.24
2023-03-22T07:52:11.304Z,10.42
2023-03-22T07:54:22.673Z,10.46
2023-03-22T07:56:32.399Z,10.46
2023-03-22T07:58:34.629Z,10.71
2023-03-22T08:00:36.264Z,10.76
2023-03-22T08:03:13.241Z,11.09
2023-03-22T08:05:30.276Z,11.26
2023-03-22T08:07:36.173Z,11.49
2023-03-22T08:09:38.461Z,10.62
2023-03-22T08:11:40.578Z,10.60
2023-03-22T08:13:42.239Z,10.85
2023-03-22T08:15:45.688Z,10.99
2023-03-22T08:17:49.692Z,10.87
2023-03-22T08:19:59.491Z,11.05
2023-03-22T08:22:17.490Z,10.83
2023-03-22T08:24:52.294Z,10.72
2023-03-22T08:27:06.695Z,10.82
2023-03-22T08:29:19.774Z,10.90
2023-03-22T08:31:23.310Z,11.11
2023-03-22T08:33:25.315Z,10.93
2023-03-22T08:35:27.531Z,11.06
2023-03-22T08:37:29.062Z,11.22
2023-03-22T08:39:30.899Z,11.42
2023-03-22T08:41:49.387Z,11.87
2023-03-22T08:43:52.061Z,11.88
2023-03-22T08:45:53.934Z,11.87
2023-03-22T08:47:57.341Z,11.79
2023-03-22T08:50:00.146Z,11.65
2023-03-22T08:52:13.851Z,11.81
2023-03-22T08:54:38.254Z,12.10
2023-03-22T08:56:39.913Z,12.17
2023-03-22T08:58:53.443Z,12.25
2023-03-22T09:01:12.110Z,12.25
2023-03-22T09:03:19.283Z,12.27
2023-03-22T09:05:20.901Z,12.41
2023-03-22T09:07:22.550Z,12.71
2023-03-22T09:09:33.371Z,12.63
2023-03-22T09:11:37.185Z,12.73
2023-03-22T09:13:39.035Z,12.83
2023-03-22T09:15:40.907Z,12.58
2023-03-22T09:17:50.859Z,12.81
2023-03-22T09:20:02.731Z,12.36
2023-03-22T09:22:11.559Z,12.42
2023-03-22T09:24:20.507Z,12.37
2023-03-22T09:26:27.017Z,12.52
2023-03-22T09:28:30.328Z,12.50
2023-03-22T09:30:34.009Z,12.60
2023-03-22T09:32:35.830Z,12.77
2023-03-22T09:34:39.022Z,12.56
2023-03-22T09:36:41.099Z,12.50
2023-03-22T09:38:42.721Z,12.58
2023-03-22T09:41:00.745Z,12.46
2023-03-22T09:43:09.000Z,12.56
2023-03-22T09:45:38.530Z,12.17
2023-03-22T09:47:46.568Z,12.09
2023-03-22T09:49:55.762Z,11.82
2023-03-22T09:51:58.583Z,12.00
2023-03-22T09:54:00.299Z,12.07
2023-03-22T09:56:24.786Z,11.84
2023-03-22T09:58:50.245Z,11.92
2023-03-22T10:01:02.806Z,12.32
2023-03-22T10:03:39.214Z,12.60
2023-03-22T10:05:49.890Z,12.45
2023-03-22T10:07:59.334Z,12.43
2023-03-22T10:10:12.921Z,12.63
2023-03-22T10:12:25.438Z,13.03
2023-03-22T10:14:33.348Z,12.89
2023-03-22T10:16:35.598Z,13.03
2023-03-22T10:18:40.674Z,13.02
2023-03-22T10:20:48.486Z,13.04
2023-03-22T10:22:53.325Z,12.88
2023-03-22T10:24:56.091Z,12.87
2023-03-22T10:26:57.614Z,13.00
2023-03-22T10:29:06.901Z,13.23
2023-03-22T10:31:17.348Z,13.29
2023-03-22T10:33:35.166Z,13.84
2023-03-22T10:35:37.888Z,14.08
2023-03-22T10:37:40.900Z,14.19
2023-03-22T10:39:49.811Z,14.10
2023-03-22T10:41:56.376Z,14.06
2023-03-22T10:44:02.589Z,13.90
2023-03-22T10:46:07.615Z,14.29
2023-03-22T10:48:27.102Z,14.19
2023-03-22T10:50:44.208Z,14.15
2023-03-22T10:52:52.559Z,13.94
2023-03-22T10:54:54.119Z,13.97
2023-03-22T10:56:56.426Z,13.64
2023-03-22T10:58:58.085Z,13.96
2023-03-22T11:01:05.903Z,14.45
2023-03-22T11:03:07.550Z,15.05
2023-03-22T11:05:23.608Z,14.84
2023-03-22T11:07:42.998Z,14.44
2023-03-22T11:09:44.541Z,14.26
2023-03-22T11:11:55.314Z,13.77
2023-03-22T11:14:06.498Z,13.79
2023-03-22T11:16:08.389Z,14.12
2023-03-22T11:18:16.082Z,13.96
2023-03-22T11:20:19.562Z,13.88
2023-03-22T11:22:38.907Z,14.12
2023-03-22T11:24:40.774Z,13.86
2023-03-22T11:26:44.802Z,13.95
2023-03-22T11:28:49.836Z,14.03
2023-03-22T11:31:02.622Z,14.14
2023-03-22T11:33:17.852Z,14.37
2023-03-22T11:35:28.243Z,14.33
2023-03-22T11:37:29.744Z,14.65
2023-03-22T11:39:31.458Z,14.83
2023-03-22T11:41:37.977Z,15.26
2023-03-22T11:43:44.001Z,15.53
2023-03-22T11:45:48.074Z,15.30
2023-03-22T11:47:49.875Z,15.11
2023-03-22T11:49:54.593Z,15.06
2023-03-22T11:51:56.691Z,14.92
2023-03-22T11:54:16.676Z,14.79
2023-03-22T11:56:25.756Z,14.66
2023-03-22T11:58:29.188Z,14.99
2023-03-22T12:00:34.756Z,14.61
2023-03-22T12:03:00.370Z,14.82
2023-03-22T12:05:15.411Z,15.40
2023-03-22T12:07:21.437Z,14.52
2023-03-22T12:09:23.027Z,14.85
2023-03-22T12:11:41.204Z,15.21
2023-03-22T12:13:51.352Z,15.57
2023-03-22T12:15:57.465Z,16.16
2023-03-22T12:18:10.688Z,16.91
2023-03-22T12:20:19.316Z,17.66
2023-03-22T12:22:31.110Z,17.50
2023-03-22T12:24:32.836Z,17.37
2023-03-22T12:26:35.532Z,18.07
2023-03-22T12:28:56.243Z,18.46
2023-03-22T12:30:59.226Z,18.66
2023-03-22T12:33:06.415Z,18.80
2023-03-22T12:35:19.685Z,18.24
2023-03-22T12:37:27.328Z,19.08
2023-03-22T12:39:35.440Z,19.07
2023-03-22T12:41:45.707Z,18.44
2023-03-22T12:43:54.126Z,19.18
2023-03-22T12:46:00.256Z,19.13
2023-03-22T12:48:31.114Z,18.74
2023-03-22T12:50:42.262Z,18.74
2023-03-22T12:52:47.675Z,18.63
2023-03-22T12:54:51.083Z,18.68
2023-03-22T12:56:53.865Z,18.42
2023-03-22T12:59:01.418Z,19.21
2023-03-22T13:01:25.109Z,20.61
2023-03-22T13:03:36.761Z,20.68
2023-03-22T13:05:41.116Z,19.92
2023-03-22T13:07:45.809Z,20.11
2023-03-22T13:09:49.415Z,19.95
2023-03-22T13:12:19.029Z,18.45
2023-03-22T13:14:57.998Z,18.81
2023-03-22T13:17:00.917Z,19.03
2023-03-22T13:19:17.272Z,19.85
2023-03-22T13:21:27.341Z,19.72
2023-03-22T13:23:28.895Z,19.48
2023-03-22T13:25:36.479Z,19.70
2023-03-22T13:27:44.592Z,19.76
2023-03-22T13:29:53.821Z,20.16
2023-03-22T13:31:58.507Z,19.97
2023-03-22T13:34:02.610Z,19.98
2023-03-22T13:36:25.058Z,20.37
2023-03-22T13:38:34.815Z,20.28
2023-03-22T13:40:46.708Z,19.55
2023-03-22T13:42:48.278Z,19.89
2023-03-22T13:44:58.437Z,20.36
2023-03-22T13:47:01.476Z,20.37
2023-03-22T13:49:03.021Z,20.22
2023-03-22T13:51:12.112Z,20.61
2023-03-22T13:53:21.717Z,20.58
2023-03-22T13:56:04.667Z,21.25
2023-03-22T13:58:11.356Z,21.11
2023-03-22T14:00:32.104Z,21.48
2023-03-22T14:02:38.148Z,21.55
2023-03-22T14:04:47.443Z,20.62
2023-03-22T14:06:54.928Z,20.48
2023-03-22T14:09:13.404Z,19.71
2023-03-22T14:11:27.185Z,19.32
2023-03-22T14:14:07.606Z,19.26
2023-03-22T14:16:15.655Z,20.00
2023-03-22T14:18:28.125Z,21.13
2023-03-22T14:20:36.035Z,22.01
